createdAt,value
2023-02-13T00:00:20.299Z,96803.34
2023-02-13T00:02:47.349Z,96802.22
2023-02-13T00:05:13.952Z,96796.91
2023-02-13T00:07:40.665Z,96790.38
2023-02-13T00:10:08.134Z,96790.63
2023-02-13T00:12:35.176Z,96782.34
2023-02-13T00:15:01.809Z,96776.31
2023-02-13T00:17:28.431Z,96777.13
2023-02-13T00:19:55.181Z,96765.44
2023-02-13T00:22:21.741Z,96779.28
2023-02-13T00:24:48.460Z,96773.25
2023-02-13T00:27:15.265Z,96773.47
2023-02-13T00:29:41.875Z,96773.53
2023-02-13T00:32:09.105Z,96781.03
2023-02-13T00:34:36.500Z,96770.91
2023-02-13T00:37:03.677Z,96769.22
2023-02-13T00:39:30.247Z,96772.69
2023-02-13T00:41:57.058Z,96760.91
2023-02-13T00:44:23.579Z,96771.06
2023-02-13T00:46:50.352Z,96773.47
2023-02-13T00:49:17.429Z,96770.00
2023-02-13T00:51:43.945Z,96768.25
2023-02-13T00:54:10.637Z,96765.13
2023-02-13T00:56:37.435Z,96764.28
2023-02-13T00:59:05.784Z,96767.81
2023-02-13T01:01:32.806Z,96766.75
2023-02-13T01:04:00.005Z,96765.16
2023-02-13T01:06:27.641Z,96764.28
2023-02-13T01:08:54.565Z,96764.22
2023-02-13T01:11:21.441Z,96766.25
2023-02-13T01:13:48.093Z,96769.03
2023-02-13T01:16:17.926Z,96764.06
2023-02-13T01:18:44.933Z,96765.19
2023-02-13T01:21:18.706Z,96766.81
2023-02-13T01:23:46.302Z,96764.94
2023-02-13T01:26:21.359Z,96765.91
2023-02-13T01:28:53.525Z,96761.41
2023-02-13T01:31:21.209Z,96769.34
2023-02-13T01:33:50.313Z,96773.47
2023-02-13T01:36:17.135Z,96773.50
2023-02-13T01:38:43.911Z,96780.19
2023-02-13T01:41:11.152Z,96772.41
2023-02-13T01:43:51.827Z,96769.03
2023-02-13T01:46:34.074Z,96772.41
2023-02-13T01:49:10.783Z,96771.06
2023-02-13T01:51:38.945Z,96763.16
2023-02-13T01:54:15.200Z,96763.75
2023-02-13T01:56:46.843Z,96757.75
2023-02-13T01:59:19.106Z,96764.34
2023-02-13T02:01:47.863Z,96770.59
2023-02-13T02:04:22.756Z,96768.13
2023-02-13T02:06:59.526Z,96763.16
2023-02-13T02:09:37.494Z,96770.06
2023-02-13T02:12:14.857Z,96770.25
2023-02-13T02:14:43.286Z,96766.91
2023-02-13T02:17:11.916Z,96771.75
2023-02-13T02:19:44.750Z,96772.72
2023-02-13T02:22:48.856Z,96764.25
2023-02-13T02:25:55.263Z,96770.81
2023-02-13T02:28:48.933Z,96771.84
2023-02-13T02:31:37.659Z,96772.88
2023-02-13T02:34:26.185Z,96773.72
2023-02-13T02:37:18.509Z,96774.50
2023-02-13T02:39:58.200Z,96769.66
2023-02-13T02:42:59.182Z,96777.16
2023-02-13T02:46:07.262Z,96770.56
2023-02-13T02:49:13.499Z,96771.66
2023-02-13T02:51:55.152Z,96774.22
2023-02-13T02:55:03.723Z,96774.00
2023-02-13T02:57:52.503Z,96771.81
2023-02-13T03:00:42.933Z,96765.13
2023-02-13T03:03:36.525Z,96771.91
2023-02-13T03:06:12.136Z,96775.19
2023-02-13T03:08:59.910Z,96770.03
2023-02-13T03:11:46.096Z,96774.25
2023-02-13T03:14:18.276Z,96775.13
2023-02-13T03:17:03.849Z,96776.81
2023-02-13T03:20:11.958Z,96786.59
2023-02-13T03:23:00.231Z,96781.09
2023-02-13T03:26:07.396Z,96782.66
2023-02-13T03:29:04.498Z,96788.75
2023-02-13T03:31:46.594Z,96786.50
2023-02-13T03:34:15.495Z,96784.91
2023-02-13T03:37:23.942Z,96788.97
2023-02-13T03:40:00.924Z,96791.50
2023-02-13T03:42:36.427Z,96787.22
2023-02-13T03:45:27.928Z,96785.47
2023-02-13T03:47:58.810Z,96790.81
2023-02-13T03:50:27.990Z,96787.22
2023-02-13T03:53:06.842Z,96792.47
2023-02-13T03:55:56.295Z,96791.53
2023-02-13T03:58:46.967Z,96786.56
2023-02-13T04:01:17.807Z,96783.84
2023-02-13T04:03:52.274Z,96792.28
2023-02-13T04:06:27.703Z,96800.88
2023-02-13T04:08:54.299Z,96800.00
2023-02-13T04:11:28.300Z,96803.50
2023-02-13T04:14:01.523Z,96799.06
2023-02-13T04:16:34.975Z,96806.88
2023-02-13T04:19:02.712Z,96805.91
2023-02-13T04:21:36.763Z,96802.47
2023-02-13T04:24:04.164Z,96805.81
2023-02-13T04:26:37.869Z,96805.84
2023-02-13T04:29:05.081Z,96810.81
2023-02-13T04:31:32.141Z,96817.19
2023-02-13T04:33:58.863Z,96814.50
2023-02-13T04:36:25.621Z,96809.06
2023-02-13T04:38:52.711Z,96810.84
2023-02-13T04:41:19.545Z,96812.44
2023-02-13T04:43:46.237Z,96815.81
2023-02-13T04:46:13.333Z,96816.53
2023-02-13T04:48:39.928Z,96814.75
2023-02-13T04:51:06.756Z,96810.34
2023-02-13T04:53:33.275Z,96813.22
2023-02-13T04:56:00.142Z,96809.38
2023-02-13T04:58:26.737Z,96812.16
2023-02-13T05:00:53.482Z,96809.47
2023-02-13T05:03:20.284Z,96806.41
2023-02-13T05:05:48.458Z,96807.25
2023-02-13T05:08:15.410Z,96802.41
2023-02-13T05:10:42.259Z,96804.06
2023-02-13T05:13:08.921Z,96800.78
2023-02-13T05:15:35.638Z,96803.25
2023-02-13T05:18:02.409Z,96800.94
2023-02-13T05:20:28.969Z,96796.94
2023-02-13T05:23:13.958Z,96798.56
2023-02-13T05:25:42.022Z,96801.00
2023-02-13T05:28:32.319Z,96803.25
2023-02-13T05:30:59.439Z,96803.03
2023-02-13T05:33:26.786Z,96803.09
2023-02-13T05:35:53.478Z,96807.38
2023-02-13T05:38:20.199Z,96804.81
2023-02-13T05:40:46.796Z,96814.94
2023-02-13T05:43:13.530Z,96813.97
2023-02-13T05:45:40.410Z,96817.25
2023-02-13T05:48:07.260Z,96818.16
2023-02-13T05:50:34.483Z,96818.84
2023-02-13T05:53:01.442Z,96817.06
2023-02-13T05:55:28.110Z,96819.78
2023-02-13T05:57:58.321Z,96823.91
2023-02-13T06:00:25.341Z,96824.75
2023-02-13T06:02:52.440Z,96827.22
2023-02-13T06:05:19.053Z,96817.84
2023-02-13T06:07:45.604Z,96822.03
2023-02-13T06:10:12.245Z,96826.28
2023-02-13T06:12:38.856Z,96823.75
2023-02-13T06:15:06.730Z,96818.59
2023-02-13T06:17:33.295Z,96822.81
2023-02-13T06:20:00.013Z,96829.72
2023-02-13T06:22:26.579Z,96834.97
2023-02-13T06:24:53.174Z,96832.03
2023-02-13T06:27:19.734Z,96842.25
2023-02-13T06:29:46.869Z,96836.50
2023-02-13T06:32:14.080Z,96839.19
2023-02-13T06:34:40.709Z,96836.16
2023-02-13T06:37:07.645Z,96839.53
2023-02-13T06:39:34.719Z,96844.44
2023-02-13T06:42:01.360Z,96842.81
2023-02-13T06:44:28.018Z,96841.69
2023-02-13T06:46:54.791Z,96849.28
2023-02-13T06:49:21.389Z,96846.81
2023-02-13T06:51:48.389Z,96845.22
2023-02-13T06:54:15.369Z,96853.03
2023-02-13T06:56:42.024Z,96853.34
2023-02-13T06:59:08.788Z,96853.53
2023-02-13T07:01:35.599Z,96863.00
2023-02-13T07:04:02.343Z,96856.91
2023-02-13T07:06:29.210Z,96867.41
2023-02-13T07:08:55.988Z,96870.53
2023-02-13T07:11:24.846Z,96871.47
2023-02-13T07:13:54.452Z,96872.88
2023-02-13T07:16:21.321Z,96879.03
2023-02-13T07:18:48.116Z,96870.84
2023-02-13T07:21:14.671Z,96874.22
2023-02-13T07:23:41.504Z,96874.53
2023-02-13T07:26:08.114Z,96877.22
2023-02-13T07:28:34.858Z,96880.44
2023-02-13T07:31:05.802Z,96890.31
2023-02-13T07:33:35.581Z,96892.00
2023-02-13T07:36:04.928Z,96891.84
2023-02-13T07:38:32.501Z,96892.88
2023-02-13T07:41:04.269Z,96896.16
2023-02-13T07:43:31.212Z,96896.91
2023-02-13T07:46:03.149Z,96898.81
2023-02-13T07:48:31.500Z,96900.41
2023-02-13T07:51:05.673Z,96902.22
2023-02-13T07:53:32.300Z,96905.13
2023-02-13T07:55:59.164Z,96904.03
2023-02-13T07:58:25.938Z,96897.91
2023-02-13T08:00:52.635Z,96903.84
2023-02-13T08:03:19.237Z,96904.66
2023-02-13T08:05:48.645Z,96903.44
2023-02-13T08:08:15.924Z,96908.44
2023-02-13T08:11:01.180Z,96911.19
2023-02-13T08:13:28.242Z,96913.72
2023-02-13T08:15:57.868Z,96910.59
2023-02-13T08:18:24.792Z,96909.97
2023-02-13T08:20:51.486Z,96905.53
2023-02-13T08:23:18.205Z,96918.09
2023-02-13T08:25:45.089Z,96915.66
2023-02-13T08:28:11.906Z,96920.75
2023-02-13T08:30:38.637Z,96925.81
2023-02-13T08:33:05.376Z,96920.25
2023-02-13T08:35:32.239Z,96920.06
2023-02-13T08:38:03.937Z,96921.41
2023-02-13T08:40:31.363Z,96923.22
2023-02-13T08:43:02.261Z,96925.75
2023-02-13T08:45:29.033Z,96926.25
2023-02-13T08:47:57.746Z,96924.38
2023-02-13T08:50:25.406Z,96927.13
2023-02-13T08:52:52.370Z,96918.84
2023-02-13T08:55:19.357Z,96917.13
2023-02-13T08:57:46.528Z,96917.28
2023-02-13T09:00:13.688Z,96915.31
2023-02-13T09:02:40.612Z,96917.28
2023-02-13T09:05:07.428Z,96916.28
2023-02-13T09:07:34.163Z,96924.31
2023-02-13T09:10:00.753Z,96919.44
2023-02-13T09:12:27.332Z,96918.94
2023-02-13T09:14:54.184Z,96918.00
2023-02-13T09:17:20.842Z,96926.34
2023-02-13T09:19:47.497Z,96924.28
2023-02-13T09:22:17.060Z,96927.69
2023-02-13T09:24:44.047Z,96930.91
2023-02-13T09:27:10.591Z,96926.41
2023-02-13T09:29:37.335Z,96934.03
2023-02-13T09:32:05.600Z,96929.22
2023-02-13T09:34:32.265Z,96939.47
2023-02-13T09:36:59.044Z,96944.53
2023-02-13T09:39:25.994Z,96935.91
2023-02-13T09:41:54.079Z,96936.75
2023-02-13T09:44:43.370Z,96937.47
2023-02-13T09:47:20.589Z,96942.31
2023-02-13T09:49:52.825Z,96937.25
2023-02-13T09:52:19.909Z,96936.78
2023-02-13T09:54:46.615Z,96928.84
2023-02-13T09:57:36.945Z,96926.75
2023-02-13T10:00:15.447Z,96931.78
2023-02-13T10:02:42.255Z,96927.31
2023-02-13T10:05:35.525Z,96928.63
2023-02-13T10:08:24.063Z,96930.00
2023-02-13T10:11:02.790Z,96928.88
2023-02-13T10:13:47.619Z,96926.28
2023-02-13T10:16:22.528Z,96924.09
2023-02-13T10:19:15.493Z,96926.03
2023-02-13T10:22:05.236Z,96932.59
2023-02-13T10:24:38.902Z,96927.47
2023-02-13T10:27:18.136Z,96927.19
2023-02-13T10:30:06.967Z,96929.81
2023-02-13T10:33:11.155Z,96926.91
2023-02-13T10:35:39.245Z,96919.59
2023-02-13T10:38:18.437Z,96923.38
2023-02-13T10:41:12.628Z,96915.69
2023-02-13T10:44:12.484Z,96924.25
2023-02-13T10:46:57.863Z,96928.38
2023-02-13T10:49:45.811Z,96917.19
2023-02-13T10:52:26.840Z,96919.94
2023-02-13T10:55:12.155Z,96915.47
2023-02-13T10:58:06.134Z,96911.81
2023-02-13T11:00:39.356Z,96912.28
2023-02-13T11:03:11.183Z,96906.28
2023-02-13T11:05:39.377Z,96911.63
2023-02-13T11:08:33.191Z,96906.13
2023-02-13T11:11:00.177Z,96900.22
2023-02-13T11:13:29.152Z,96897.13
2023-02-13T11:16:10.538Z,96892.56
2023-02-13T11:18:41.421Z,96897.09
2023-02-13T11:21:11.438Z,96888.34
2023-02-13T11:23:43.692Z,96886.91
2023-02-13T11:26:22.671Z,96883.94
2023-02-13T11:28:56.505Z,96889.63
2023-02-13T11:31:30.999Z,96876.78
2023-02-13T11:34:00.246Z,96889.31
2023-02-13T11:36:32.197Z,96881.47
2023-02-13T11:39:22.885Z,96888.06
2023-02-13T11:41:52.902Z,96885.16
2023-02-13T11:44:27.228Z,96890.69
2023-02-13T11:46:57.041Z,96883.97
2023-02-13T11:49:25.227Z,96888.97
2023-02-13T11:51:54.841Z,96890.03
2023-02-13T11:54:26.767Z,96887.28
2023-02-13T11:58:00.262Z,96887.59
2023-02-13T12:00:42.956Z,96887.78
2023-02-13T12:03:21.874Z,96891.22
2023-02-13T12:06:07.260Z,96881.84
2023-02-13T12:08:37.852Z,96882.31
2023-02-13T12:11:24.662Z,96879.16
2023-02-13T12:13:52.448Z,96870.34
2023-02-13T12:16:24.954Z,96870.91
2023-02-13T12:18:56.074Z,96868.19
2023-02-13T12:21:44.702Z,96877.06
2023-02-13T12:24:29.563Z,96859.25
2023-02-13T12:27:19.267Z,96861.63
2023-02-13T12:30:05.300Z,96859.47
2023-02-13T12:32:59.579Z,96861.84
2023-02-13T12:35:29.309Z,96856.94
2023-02-13T12:37:59.958Z,96856.63
2023-02-13T12:40:39.942Z,96856.47
2023-02-13T12:43:28.599Z,96854.50
2023-02-13T12:46:27.349Z,96850.84
2023-02-13T12:49:09.368Z,96846.03
2023-02-13T12:51:54.317Z,96840.78
2023-02-13T12:54:26.920Z,96842.09
2023-02-13T12:57:36.544Z,96839.91
2023-02-13T13:00:38.386Z,96831.22
2023-02-13T13:03:18.172Z,96826.25
2023-02-13T13:06:09.022Z,96825.31
2023-02-13T13:09:03.006Z,96823.56
2023-02-13T13:11:44.946Z,96823.16
2023-02-13T13:14:30.303Z,96824.00
2023-02-13T13:17:03.182Z,96820.19
2023-02-13T13:19:51.384Z,96821.97
2023-02-13T13:22:18.106Z,96832.00
2023-02-13T13:25:12.724Z,96828.19
2023-02-13T13:27:50.226Z,96824.13
2023-02-13T13:30:22.708Z,96819.84
2023-02-13T13:32:54.836Z,96817.63
2023-02-13T13:35:22.222Z,96815.63
2023-02-13T13:38:09.956Z,96824.81
2023-02-13T13:40:51.111Z,96823.19
2023-02-13T13:43:17.744Z,96824.06
2023-02-13T13:46:01.868Z,96828.25
2023-02-13T13:48:55.985Z,96819.88
2023-02-13T13:51:23.456Z,96822.25
2023-02-13T13:54:05.183Z,96828.06
2023-02-13T13:57:05.456Z,96820.13
2023-02-13T13:59:38.249Z,96824.53
2023-02-13T14:02:19.969Z,96813.53
2023-02-13T14:05:05.416Z,96816.88
2023-02-13T14:07:38.173Z,96823.34
2023-02-13T14:10:06.150Z,96818.63
2023-02-13T14:12:32.680Z,96816.19
2023-02-13T14:15:00.225Z,96825.47
2023-02-13T14:17:45.297Z,96821.28
2023-02-13T14:20:37.376Z,96809.88
2023-02-13T14:23:13.114Z,96813.59
2023-02-13T14:25:42.788Z,96813.53
2023-02-13T14:28:25.128Z,96822.22
2023-02-13T14:31:04.445Z,96815.41
2023-02-13T14:33:32.688Z,96811.88
2023-02-13T14:36:02.992Z,96807.97
2023-02-13T14:38:30.271Z,96804.75
2023-02-13T14:40:59.203Z,96809.56
2023-02-13T14:43:29.998Z,96795.56
2023-02-13T14:46:16.922Z,96801.47
2023-02-13T14:48:53.072Z,96808.69
2023-02-13T14:51:32.076Z,96799.34
2023-02-13T14:54:05.042Z,96805.94
2023-02-13T14:56:32.601Z,96805.06
2023-02-13T14:59:07.415Z,96803.25
2023-02-13T15:01:42.673Z,96809.03
2023-02-13T15:04:22.683Z,96812.13
2023-02-13T15:06:50.975Z,96803.72
2023-02-13T15:09:20.666Z,96815.16
2023-02-13T15:11:47.363Z,96799.97
2023-02-13T15:14:18.506Z,96804.06
2023-02-13T15:16:48.671Z,96801.19
2023-02-13T15:19:17.288Z,96805.16
2023-02-13T15:21:50.903Z,96804.91
2023-02-13T15:24:17.725Z,96801.41
2023-02-13T15:26:50.969Z,96804.91
2023-02-13T15:29:29.213Z,96801.88
2023-02-13T15:31:58.871Z,96811.00
2023-02-13T15:34:29.905Z,96806.91
2023-02-13T15:36:56.975Z,96804.06
2023-02-13T15:39:29.290Z,96801.72
2023-02-13T15:41:59.059Z,96801.06
2023-02-13T15:44:36.898Z,96802.84
2023-02-13T15:47:14.421Z,96810.88
2023-02-13T15:49:47.356Z,96806.28
2023-02-13T15:52:36.773Z,96805.41
2023-02-13T15:55:04.165Z,96803.31
2023-02-13T15:57:31.545Z,96802.06
2023-02-13T16:00:00.484Z,96795.03
2023-02-13T16:02:41.898Z,96802.22
2023-02-13T16:05:12.994Z,96797.78
2023-02-13T16:07:51.581Z,96800.28
2023-02-13T16:10:36.383Z,96810.41
2023-02-13T16:13:05.860Z,96807.25
2023-02-13T16:15:35.895Z,96804.28
2023-02-13T16:18:03.962Z,96805.97
2023-02-13T16:20:33.353Z,96805.50
2023-02-13T16:23:13.821Z,96806.00
2023-02-13T16:25:41.305Z,96806.53
2023-02-13T16:28:24.283Z,96806.13
2023-02-13T16:31:00.166Z,96807.66
2023-02-13T16:33:26.819Z,96798.59
2023-02-13T16:35:56.652Z,96800.59
2023-02-13T16:38:25.979Z,96803.59
2023-02-13T16:40:53.208Z,96819.81
2023-02-13T16:43:41.658Z,96817.78
2023-02-13T16:46:26.893Z,96824.47
2023-02-13T16:48:56.255Z,96825.09
2023-02-13T16:51:30.760Z,96829.53
2023-02-13T16:54:04.533Z,96832.19
2023-02-13T16:56:48.436Z,96829.19
2023-02-13T16:59:33.239Z,96840.44
2023-02-13T17:02:25.263Z,96840.59
2023-02-13T17:05:14.797Z,96850.81
2023-02-13T17:07:44.103Z,96849.38
2023-02-13T17:10:23.874Z,96849.66
2023-02-13T17:12:51.487Z,96847.16
2023-02-13T17:15:23.656Z,96842.22
2023-02-13T17:17:51.272Z,96839.81
2023-02-13T17:20:21.533Z,96843.13
2023-02-13T17:22:50.876Z,96841.75
2023-02-13T17:25:20.896Z,96835.00
2023-02-13T17:27:47.756Z,96842.63
2023-02-13T17:30:19.794Z,96837.81
2023-02-13T17:32:48.428Z,96837.16
2023-02-13T17:35:16.577Z,96835.63
2023-02-13T17:37:44.470Z,96839.84
2023-02-13T17:40:18.034Z,96839.31
2023-02-13T17:42:47.051Z,96837.91
2023-02-13T17:45:15.833Z,96838.97
2023-02-13T17:47:42.519Z,96850.16
2023-02-13T17:50:11.006Z,96851.09
2023-02-13T17:52:38.801Z,96847.91
2023-02-13T17:55:07.448Z,96851.28
2023-02-13T17:57:34.195Z,96849.34
2023-02-13T18:00:04.700Z,96842.41
2023-02-13T18:02:39.229Z,96845.50
2023-02-13T18:05:06.679Z,96836.66
2023-02-13T18:07:33.258Z,96842.97
2023-02-13T18:09:59.791Z,96837.69
2023-02-13T18:12:26.566Z,96838.28
2023-02-13T18:14:54.149Z,96842.22
2023-02-13T18:17:21.232Z,96841.19
2023-02-13T18:19:47.918Z,96841.75
2023-02-13T18:22:14.541Z,96839.06
2023-02-13T18:24:42.450Z,96846.69
2023-02-13T18:27:11.214Z,96843.88
2023-02-13T18:29:38.883Z,96833.50
2023-02-13T18:32:10.260Z,96835.00
2023-02-13T18:34:38.479Z,96838.94
2023-02-13T18:37:06.455Z,96835.63
2023-02-13T18:39:33.632Z,96835.75
2023-02-13T18:42:00.610Z,96835.81
2023-02-13T18:44:28.869Z,96830.00
2023-02-13T18:46:56.466Z,96827.56
2023-02-13T18:49:23.129Z,96833.59
2023-02-13T18:51:51.030Z,96840.38
2023-02-13T18:54:21.566Z,96834.56
2023-02-13T18:56:48.861Z,96833.59
2023-02-13T18:59:16.001Z,96825.94
2023-02-13T19:01:42.621Z,96836.25
2023-02-13T19:04:11.092Z,96832.13
2023-02-13T19:06:42.423Z,96826.03
2023-02-13T19:09:09.861Z,96835.31
2023-02-13T19:11:38.448Z,96830.50
2023-02-13T19:14:07.164Z,96823.50
2023-02-13T19:16:35.523Z,96829.31
2023-02-13T19:19:04.651Z,96830.34
2023-02-13T19:21:34.045Z,96826.16
2023-02-13T19:24:02.754Z,96829.31
2023-02-13T19:26:29.815Z,96836.38
2023-02-13T19:28:57.751Z,96839.03
2023-02-13T19:31:29.991Z,96837.25
2023-02-13T19:33:56.917Z,96833.59
2023-02-13T19:36:25.661Z,96831.81
2023-02-13T19:39:00.353Z,96835.25
2023-02-13T19:41:27.236Z,96832.75
2023-02-13T19:43:53.867Z,96839.53
2023-02-13T19:46:27.233Z,96837.81
2023-02-13T19:48:55.005Z,96850.47
2023-02-13T19:51:30.306Z,96846.41
2023-02-13T19:54:05.741Z,96846.63
2023-02-13T19:56:35.290Z,96842.13
2023-02-13T19:59:02.159Z,96847.97
2023-02-13T20:01:29.933Z,96834.41
2023-02-13T20:03:56.748Z,96831.03
2023-02-13T20:06:31.722Z,96827.69
2023-02-13T20:09:01.896Z,96826.72
2023-02-13T20:11:28.870Z,96817.41
2023-02-13T20:13:57.646Z,96828.34
2023-02-13T20:16:24.878Z,96826.16
2023-02-13T20:18:52.478Z,96825.31
2023-02-13T20:21:20.902Z,96827.66
2023-02-13T20:23:50.458Z,96832.09
2023-02-13T20:26:17.395Z,96838.00
2023-02-13T20:28:47.882Z,96839.00
2023-02-13T20:31:20.175Z,96839.34
2023-02-13T20:33:48.257Z,96836.84
2023-02-13T20:36:18.623Z,96837.53
2023-02-13T20:38:46.581Z,96835.63
2023-02-13T20:41:19.352Z,96834.84
2023-02-13T20:43:46.940Z,96844.03
2023-02-13T20:46:16.093Z,96838.59
2023-02-13T20:48:45.446Z,96831.06
2023-02-13T20:51:14.417Z,96841.97
2023-02-13T20:53:42.226Z,96847.06
2023-02-13T20:56:15.879Z,96841.19
2023-02-13T20:58:44.172Z,96844.69
2023-02-13T21:01:22.437Z,96841.28
2023-02-13T21:03:53.736Z,96843.94
2023-02-13T21:06:26.074Z,96837.28
2023-02-13T21:08:52.824Z,96831.19
2023-02-13T21:11:20.289Z,96826.41
2023-02-13T21:13:47.668Z,96829.72
2023-02-13T21:16:19.518Z,96822.16
2023-02-13T21:18:51.359Z,96827.16
2023-02-13T21:21:19.173Z,96828.78
2023-02-13T21:23:46.438Z,96826.38
2023-02-13T21:26:18.142Z,96825.69
2023-02-13T21:28:48.667Z,96827.34
2023-02-13T21:31:29.478Z,96829.16
2023-02-13T21:34:05.536Z,96825.75
2023-02-13T21:36:33.919Z,96819.88
2023-02-13T21:39:01.142Z,96821.69
2023-02-13T21:41:27.944Z,96819.16
2023-02-13T21:43:54.926Z,96819.25
2023-02-13T21:46:32.998Z,96823.47
2023-02-13T21:49:02.571Z,96824.22
2023-02-13T21:51:31.782Z,96824.16
2023-02-13T21:53:59.297Z,96822.31
2023-02-13T21:56:29.137Z,96819.31
2023-02-13T21:58:56.646Z,96813.44
2023-02-13T22:01:29.950Z,96808.63
2023-02-13T22:04:00.747Z,96806.47
2023-02-13T22:06:29.470Z,96807.22
2023-02-13T22:09:02.128Z,96808.69
2023-02-13T22:11:29.558Z,96809.22
2023-02-13T22:14:00.076Z,96804.84
2023-02-13T22:16:27.274Z,96798.28
2023-02-13T22:18:54.626Z,96799.06
2023-02-13T22:21:23.549Z,96799.19
2023-02-13T22:23:53.470Z,96789.94
2023-02-13T22:26:30.711Z,96783.34
2023-02-13T22:29:03.269Z,96787.84
2023-02-13T22:31:30.347Z,96783.47
2023-02-13T22:34:03.950Z,96789.59
2023-02-13T22:36:33.070Z,96787.47
2023-02-13T22:38:59.892Z,96792.72
2023-02-13T22:41:27.004Z,96794.69
2023-02-13T22:43:54.118Z,96792.16
2023-02-13T22:46:23.974Z,96794.06
2023-02-13T22:48:54.035Z,96795.09
2023-02-13T22:51:24.373Z,96794.78
2023-02-13T22:53:56.282Z,96791.50
2023-02-13T22:56:24.343Z,96784.94
2023-02-13T22:58:51.863Z,96786.84
2023-02-13T23:01:22.146Z,96785.41
2023-02-13T23:03:48.873Z,96790.63
2023-02-13T23:06:16.242Z,96802.56
2023-02-13T23:08:43.692Z,96793.13
2023-02-13T23:11:35.527Z,96788.00
2023-02-13T23:14:03.131Z,96783.88
2023-02-13T23:16:53.162Z,96783.13
2023-02-13T23:19:20.850Z,96789.91
2023-02-13T23:21:47.608Z,96786.00
2023-02-13T23:24:14.405Z,96782.50
2023-02-13T23:26:41.226Z,96783.09
2023-02-13T23:29:08.015Z,96778.78
2023-02-13T23:31:34.608Z,96777.94
2023-02-13T23:34:01.441Z,96772.00
2023-02-13T23:36:28.658Z,96775.44
2023-02-13T23:38:55.319Z,96762.75
2023-02-13T23:41:22.016Z,96768.88
2023-02-13T23:43:48.623Z,96770.91
2023-02-13T23:46:15.335Z,96772.69
2023-02-13T23:48:42.392Z,96780.03
2023-02-13T23:51:08.929Z,96777.53
2023-02-13T23:53:36.166Z,96778.16
2023-02-13T23:56:03.455Z,96783.03
2023-02-13T23:58:30.565Z,96779.72
